Ulmodrome de Limoux

FR-0329 · Occitanie, 法国

罗盘
风向 的 风向 的 风向 到 风向 280°
风: 7 kt, 3 beaufort

添加一条跑道以查看侧风和逆风信息。

添置 跑道
0 2.000 4.000 6.000 8.000 10.000
BKN 2.500 ft
OVC 5.200 ft
METAR LFMK 060330Z AUTO 28007KT 240V300 9999 BKN025 OVC052 17/15 Q1028 BECMG BKN012

METAR Ulmodrome de Limoux - FR-0329

Ulmodrome de Limoux是Limoux,法国中的小机场。 该领域的国际民航组织标志是FR-0329.

这份报告是针对2022年10月6日 05:30, 当地时间在Carcassonne Airport进行的。

机场观察

风向为280°,速度为7 kt。 风向在240°和300°之间变化。

可见度为10 km 或者更多。

有碎云在2.500 ft的高度 和 乌云密布在5.200 ft的高度。 破损或更高的上限为2.500 ft。

温度和风寒是17 °C。 露点为15 °C,相对湿度为88%。 海平面上的气压为1028 hPa (QNH)。

发展趋势

  • 变得

    可变方向的风很小或没有。 碎云在1.200 ft的高度.

白天

今天,太阳从07:54升起,在19:24降落。 这适用于Ulmodrome de Limoux,世界夏令时可能有所不同。 当地时间与世界标准时间之间的时差为+2 小时。 夏令时目前正在进行中。

公司介绍

我们没有关于这个机场的公司信息。

体会

到Vliegles.nl去找飞行课程,跳伞和其他飞行体验。 浏览页面,了解Ulmodrome de Limoux附近所有可用的活动。 你也可以使用搜索功能来寻找你所在地附近的特定飞行课程、跳伞或其他飞行体验。

乌云

2.500 ft BKN 碎云
5.200 ft OVC 乌云密布
1.200 ft BKN 变得 碎云

温度 & 天气

温度 17 °C
露点 15 °C
相对湿度 88%
Kp-index 1 (0-9)

白天

日出
07:53 (2h 18m)
中午
13:38
日落
19:23

小工具

你想在你的网站上有一个关于Ulmodrome de Limoux的当前航空天气(METAR)的小部件吗?

</> 显示HTML代码

我们和第三方通过cookies跟踪您在我们网站上的上网行为。如果您继续,我们认为您同意我们的cookie政策。 了解更多